Time;durP1;ratioP1;P1;durP2;ratioP2;P2;SDS_P1;SDS_P2;PMS_P1;PMS_P2;Temp;Humidity;BMP_temperature;BMP_pressure;BME280_temperature;BME280_humidity;BME280_pressure;Samples;Min_cycle;Max_cycle;Signal;HPM_P1;HPM_P2
2023/02/25 00:01:27;;;;;;;31.67;6.75;;;2.30;99.90;;;;;;5033877;28;20040;-75
2023/02/25 00:03:55;;;;;;;33.95;7.70;;;2.30;99.90;;;;;;5025396;28;20073;-76
2023/02/25 00:06:23;;;;;;;39.22;7.45;;;2.40;99.90;;;;;;5035767;28;20044;-78
2023/02/25 00:08:51;;;;;;;36.25;6.70;;;2.40;99.90;;;;;;5032152;28;20054;-76
2023/02/25 00:11:19;;;;;;;35.75;6.75;;;2.40;99.90;;;;;;5038652;28;20046;-77
2023/02/25 00:13:46;;;;;;;22.05;6.05;;;2.40;99.90;;;;;;5012566;28;20440;-75
2023/02/25 00:16:14;;;;;;;33.22;7.90;;;2.30;99.90;;;;;;5012586;28;20050;-77
2023/02/25 00:18:43;;;;;;;29.38;5.97;;;2.30;99.90;;;;;;5035658;28;20096;-75
2023/02/25 00:21:16;;;;;;;42.63;7.93;;;2.30;99.90;;;;;;5019829;28;20464;-74
2023/02/25 00:23:46;;;;;;;32.70;8.50;;;2.40;99.90;;;;;;5020410;28;20152;-76
2023/02/25 00:26:14;;;;;;;35.33;7.57;;;2.30;99.90;;;;;;5017699;28;20060;-75
2023/02/25 00:28:43;;;;;;;25.00;6.97;;;2.40;99.90;;;;;;5028412;28;20380;-75
2023/02/25 00:31:13;;;;;;;29.42;6.25;;;2.50;99.90;;;;;;5017926;28;20075;-76
2023/02/25 00:33:40;;;;;;;37.63;6.35;;;2.40;99.90;;;;;;5033787;28;20049;-74
2023/02/25 00:36:19;;;;;;;23.20;6.03;;;2.40;99.90;;;;;;5015685;28;20045;-75
2023/02/25 00:38:48;;;;;;;29.25;5.68;;;2.40;99.90;;;;;;5035871;28;20213;-74
2023/02/25 00:41:18;;;;;;;33.15;5.65;;;2.40;99.90;;;;;;5029213;28;20048;-75
2023/02/25 00:43:49;;;;;;;29.85;6.43;;;2.40;99.90;;;;;;5016703;28;20084;-73
2023/02/25 00:46:16;;;;;;;35.45;5.85;;;2.40;99.90;;;;;;5020875;28;20037;-75
2023/02/25 00:48:43;;;;;;;37.15;6.80;;;2.40;99.90;;;;;;5018907;28;20123;-74
2023/02/25 00:51:13;;;;;;;36.28;7.60;;;2.40;99.90;;;;;;5023488;28;20418;-75
2023/02/25 00:53:40;;;;;;;26.38;4.97;;;2.30;99.90;;;;;;5019372;28;20037;-73
2023/02/25 00:56:10;;;;;;;31.40;6.80;;;2.40;99.90;;;;;;5016982;28;20038;-75
2023/02/25 00:58:37;;;;;;;28.20;8.48;;;2.40;99.90;;;;;;5022572;28;20051;-73
2023/02/25 01:01:14;;;;;;;38.22;7.35;;;2.40;99.90;;;;;;4997721;28;20491;-75
2023/02/25 01:03:41;;;;;;;31.67;8.52;;;2.40;99.90;;;;;;5016385;28;20453;-73
2023/02/25 01:06:08;;;;;;;42.15;8.18;;;2.30;99.90;;;;;;5021649;28;20038;-74
2023/02/25 01:08:36;;;;;;;35.50;9.40;;;2.30;99.90;;;;;;5038432;28;20126;-74
2023/02/25 01:11:26;;;;;;;41.28;9.02;;;2.30;99.90;;;;;;5021692;28;20054;-76
2023/02/25 01:13:56;;;;;;;31.13;5.95;;;2.40;99.90;;;;;;5022317;28;20053;-75
2023/02/25 01:16:28;;;;;;;26.83;5.93;;;2.40;99.90;;;;;;5036792;28;20065;-74
2023/02/25 01:18:59;;;;;;;28.90;6.35;;;2.40;99.90;;;;;;5011053;28;20124;-74
2023/02/25 01:21:28;;;;;;;31.10;7.38;;;2.40;99.90;;;;;;5015946;28;20076;-74
2023/02/25 01:23:58;;;;;;;35.83;7.00;;;2.40;99.90;;;;;;5015002;28;20044;-75
2023/02/25 01:26:26;;;;;;;32.00;6.20;;;2.40;99.90;;;;;;5020445;28;20041;-74
2023/02/25 01:28:54;;;;;;;23.50;5.50;;;2.40;99.90;;;;;;5011637;28;20044;-74
2023/02/25 01:31:27;;;;;;;30.00;5.97;;;2.40;99.90;;;;;;5014244;28;20037;-75
2023/02/25 01:33:59;;;;;;;25.77;5.72;;;2.40;99.90;;;;;;5023993;28;20037;-74
2023/02/25 01:36:27;;;;;;;38.05;6.95;;;2.40;99.90;;;;;;5024591;28;20140;-78
2023/02/25 01:38:55;;;;;;;26.15;7.40;;;2.30;99.90;;;;;;5021837;28;20041;-77
2023/02/25 01:41:24;;;;;;;29.00;5.30;;;2.40;99.90;;;;;;5021337;28;20064;-77
2023/02/25 01:44:02;;;;;;;38.65;7.28;;;2.30;99.90;;;;;;5014299;28;20041;-76
2023/02/25 01:46:29;;;;;;;23.70;6.18;;;2.40;99.90;;;;;;5025145;28;20061;-78
2023/02/25 01:48:57;;;;;;;32.67;6.00;;;2.40;99.90;;;;;;5017436;28;20075;-76
2023/02/25 01:51:26;;;;;;;43.65;8.32;;;2.40;99.90;;;;;;5015443;28;20072;-75
2023/02/25 01:53:55;;;;;;;36.40;7.05;;;2.40;99.90;;;;;;5014534;28;20390;-76
2023/02/25 01:56:24;;;;;;;34.10;6.22;;;2.40;99.90;;;;;;5019120;28;20141;-75
2023/02/25 01:58:52;;;;;;;37.15;7.07;;;2.40;99.90;;;;;;5032946;28;20642;-75
2023/02/25 02:01:22;;;;;;;33.00;6.43;;;2.40;99.90;;;;;;5005410;28;20107;-77
2023/02/25 02:03:50;;;;;;;26.58;7.03;;;2.40;99.90;;;;;;5017465;28;20133;-75
2023/02/25 02:06:32;;;;;;;31.67;7.13;;;2.40;99.90;;;;;;5033404;28;20606;-74
2023/02/25 02:09:00;;;;;;;37.70;9.40;;;2.40;99.90;;;;;;5025090;28;20103;-76
2023/02/25 02:11:28;;;;;;;28.88;7.72;;;2.30;99.90;;;;;;5015660;28;20494;-76
2023/02/25 02:13:57;;;;;;;38.08;7.57;;;2.30;99.90;;;;;;5027740;28;20068;-76
2023/02/25 02:17:08;;;;;;;31.10;7.45;;;2.40;99.90;;;;;;5020667;28;20041;-76
2023/02/25 02:19:48;;;;;;;37.00;7.63;;;2.40;99.90;;;;;;4978889;28;20136;-75
2023/02/25 02:22:36;;;;;;;34.20;6.18;;;2.30;99.90;;;;;;5018739;28;20045;-75
2023/02/25 02:25:29;;;;;;;35.08;7.47;;;2.30;99.90;;;;;;5020088;28;20124;-75
2023/02/25 02:28:21;;;;;;;30.42;8.35;;;2.30;99.90;;;;;;5038043;28;20037;-77
2023/02/25 02:31:18;;;;;;;40.47;9.98;;;2.30;99.90;;;;;;5017666;28;20041;-76
2023/02/25 02:34:15;;;;;;;27.83;7.88;;;2.30;99.90;;;;;;5030430;28;20049;-75
2023/02/25 02:37:23;;;;;;;56.80;11.50;;;2.30;99.90;;;;;;5036626;28;20037;-75
2023/02/25 02:40:14;;;;;;;32.78;9.57;;;2.30;99.90;;;;;;5055767;28;20571;-74
2023/02/25 02:42:58;;;;;;;46.53;10.43;;;2.40;99.90;;;;;;5055202;28;20040;-75
2023/02/25 02:45:33;;;;;;;30.50;10.10;;;2.30;99.90;;;;;;5041364;28;20040;-75
2023/02/25 02:48:16;;;;;;;27.85;9.35;;;2.30;99.90;;;;;;5033988;28;20044;-74
2023/02/25 02:50:46;;;;;;;45.88;10.20;;;2.30;99.90;;;;;;5043353;28;20135;-75
2023/02/25 02:53:31;;;;;;;35.63;9.05;;;2.30;99.90;;;;;;5029387;28;20625;-75
2023/02/25 02:56:01;;;;;;;41.03;8.82;;;2.30;99.90;;;;;;5049599;28;20060;-74
2023/02/25 02:58:35;;;;;;;30.38;8.55;;;2.30;99.90;;;;;;5036232;28;20075;-75
2023/02/25 03:01:19;;;;;;;35.47;10.30;;;2.30;99.90;;;;;;5055594;28;20058;-74
2023/02/25 03:03:58;;;;;;;47.00;10.38;;;2.30;99.90;;;;;;5060496;28;20044;-74
2023/02/25 03:06:31;;;;;;;46.33;9.95;;;2.30;99.90;;;;;;5058833;28;20041;-74
2023/02/25 03:09:13;;;;;;;34.00;9.90;;;2.40;99.90;;;;;;5041270;28;20044;-74
2023/02/25 03:11:41;;;;;;;38.42;8.18;;;2.40;99.90;;;;;;5040283;28;20075;-74
2023/02/25 03:14:07;;;;;;;48.28;9.00;;;2.40;99.90;;;;;;5040321;28;20052;-75
2023/02/25 03:16:42;;;;;;;36.40;8.95;;;2.30;99.90;;;;;;5053938;28;20135;-75
2023/02/25 03:19:23;;;;;;;45.95;10.52;;;2.30;99.90;;;;;;5050910;28;20588;-76
2023/02/25 03:22:04;;;;;;;38.60;9.85;;;2.30;99.90;;;;;;5064819;28;20036;-76
2023/02/25 03:24:52;;;;;;;36.20;8.45;;;2.30;99.90;;;;;;5048651;28;21262;-76
2023/02/25 03:27:27;;;;;;;37.58;9.63;;;2.30;99.90;;;;;;5038306;28;20044;-75
2023/02/25 03:30:11;;;;;;;36.47;8.65;;;2.30;99.90;;;;;;5039204;28;20545;-76
2023/02/25 03:32:46;;;;;;;37.85;8.82;;;2.40;99.90;;;;;;5065226;28;20044;-75
2023/02/25 03:35:15;;;;;;;42.67;9.32;;;2.40;99.90;;;;;;5046048;28;20043;-75
2023/02/25 03:37:48;;;;;;;37.03;9.25;;;2.40;99.90;;;;;;5064322;28;20047;-75
2023/02/25 03:40:16;;;;;;;38.55;9.35;;;2.30;99.90;;;;;;5030399;23;20462;-74
2023/02/25 03:42:51;;;;;;;35.00;9.55;;;2.30;99.90;;;;;;4982462;28;20037;-74
2023/02/25 03:45:22;;;;;;;35.67;6.97;;;2.40;99.90;;;;;;4986408;28;20091;-72
2023/02/25 03:47:49;;;;;;;37.75;8.55;;;2.40;99.90;;;;;;4991489;28;20033;-71
2023/02/25 03:50:27;;;;;;;34.95;7.63;;;2.40;99.90;;;;;;4967027;28;20285;-72
2023/02/25 03:52:58;;;;;;;36.38;9.35;;;2.40;99.90;;;;;;4984956;28;20045;-72
2023/02/25 03:56:07;;;;;;;40.53;8.27;;;2.40;99.90;;;;;;4987805;28;20045;-72
2023/02/25 03:58:37;;;;;;;37.47;9.55;;;2.30;99.90;;;;;;4984377;28;20300;-72
2023/02/25 04:01:12;;;;;;;22.90;7.25;;;2.20;99.90;;;;;;4988454;28;20342;-72
2023/02/25 04:03:42;;;;;;;37.88;9.57;;;2.20;99.90;;;;;;4985283;28;20065;-72
2023/02/25 04:06:11;;;;;;;23.85;6.53;;;2.20;99.90;;;;;;4994606;28;20343;-72
2023/02/25 04:08:39;;;;;;;20.05;5.93;;;2.20;99.90;;;;;;4984834;28;20042;-72
2023/02/25 04:11:05;;;;;;;24.35;6.95;;;2.20;99.90;;;;;;4987137;28;20628;-72
2023/02/25 04:13:32;;;;;;;26.90;7.00;;;2.20;99.90;;;;;;4969312;28;20634;-74
2023/02/25 04:15:59;;;;;;;41.40;7.15;;;2.10;99.90;;;;;;4999499;28;20216;-74
2023/02/25 04:18:26;;;;;;;31.90;8.07;;;2.10;99.90;;;;;;4986455;28;20049;-74
2023/02/25 04:20:53;;;;;;;37.28;7.90;;;2.10;99.90;;;;;;4987670;28;20547;-72
2023/02/25 04:23:20;;;;;;;33.97;9.02;;;2.30;99.90;;;;;;4983851;28;20321;-72
2023/02/25 04:25:47;;;;;;;49.60;10.50;;;2.20;99.90;;;;;;4981575;28;20118;-71
2023/02/25 04:28:14;;;;;;;33.63;7.63;;;2.20;99.90;;;;;;4985016;28;20038;-74
2023/02/25 04:30:41;;;;;;;47.22;10.88;;;2.30;99.90;;;;;;4985478;28;20048;-74
2023/02/25 04:33:15;;;;;;;37.72;10.63;;;2.30;99.90;;;;;;4988114;28;20153;-74
2023/02/25 04:35:43;;;;;;;42.55;9.45;;;2.30;99.90;;;;;;4983711;28;20068;-74
2023/02/25 04:38:10;;;;;;;31.95;9.38;;;2.40;99.90;;;;;;5001468;23;20068;-73
2023/02/25 04:40:37;;;;;;;37.65;9.20;;;2.40;99.90;;;;;;5001687;28;20053;-72
2023/02/25 04:43:04;;;;;;;39.75;10.02;;;2.40;99.90;;;;;;5006747;28;20160;-73
2023/02/25 04:45:31;;;;;;;37.40;10.23;;;2.40;99.90;;;;;;5000302;28;20048;-73
2023/02/25 04:47:57;;;;;;;40.97;10.13;;;2.40;99.90;;;;;;5000740;28;20034;-73
2023/02/25 04:50:24;;;;;;;39.03;11.48;;;2.40;99.90;;;;;;5001193;28;20431;-72
2023/02/25 04:52:51;;;;;;;38.80;10.15;;;2.40;99.90;;;;;;5001884;28;20537;-72
2023/02/25 04:55:18;;;;;;;87.10;12.88;;;2.40;99.90;;;;;;4972706;28;20041;-73
2023/02/25 04:57:45;;;;;;;39.85;11.00;;;2.40;99.90;;;;;;4987661;28;20087;-76
2023/02/25 05:00:17;;;;;;;36.75;9.80;;;2.50;99.90;;;;;;4990456;28;20510;-75
2023/02/25 05:02:47;;;;;;;51.92;9.15;;;2.50;99.90;;;;;;4982641;28;20417;-75
2023/02/25 05:05:15;;;;;;;38.78;9.18;;;2.40;99.90;;;;;;4998204;28;20041;-75
2023/02/25 05:07:42;;;;;;;33.80;8.93;;;2.40;99.90;;;;;;4988643;28;20132;-75
2023/02/25 05:10:12;;;;;;;44.25;9.20;;;2.30;99.90;;;;;;4997896;28;20049;-75
2023/02/25 05:12:38;;;;;;;48.45;10.13;;;2.40;99.90;;;;;;4981908;28;20138;-74
2023/02/25 05:15:07;;;;;;;27.35;8.50;;;2.40;99.90;;;;;;4984809;28;20261;-74
2023/02/25 05:17:34;;;;;;;28.35;9.25;;;2.40;99.90;;;;;;5000568;28;20037;-74
2023/02/25 05:20:05;;;;;;;41.58;8.80;;;2.40;99.90;;;;;;4999995;28;20045;-75
2023/02/25 05:22:32;;;;;;;36.88;8.82;;;2.40;99.90;;;;;;4995943;28;20038;-74
2023/02/25 05:24:59;;;;;;;40.38;9.45;;;2.40;99.90;;;;;;5000624;28;20041;-74
2023/02/25 05:27:26;;;;;;;42.95;10.75;;;2.40;99.90;;;;;;4999568;28;20041;-74
2023/02/25 05:29:53;;;;;;;33.92;8.88;;;2.30;99.90;;;;;;5002042;28;20490;-73
2023/02/25 05:32:20;;;;;;;31.33;8.48;;;2.30;99.90;;;;;;4987567;28;20040;-75
2023/02/25 05:34:47;;;;;;;35.88;8.65;;;2.30;99.90;;;;;;4982880;28;20040;-75
2023/02/25 05:37:14;;;;;;;29.08;9.75;;;2.20;99.90;;;;;;4996897;28;20049;-74
2023/02/25 05:39:41;;;;;;;29.98;9.27;;;2.20;99.90;;;;;;5001310;28;20054;-74
2023/02/25 05:42:07;;;;;;;22.52;7.93;;;2.20;99.90;;;;;;4991610;28;20204;-76
2023/02/25 05:44:34;;;;;;;24.02;7.18;;;2.20;99.90;;;;;;5003738;28;20064;-75
2023/02/25 05:47:01;;;;;;;23.92;8.07;;;2.20;99.90;;;;;;4990114;28;20034;-76
2023/02/25 05:49:28;;;;;;;13.85;6.22;;;2.10;99.90;;;;;;5007849;28;20041;-76
2023/02/25 05:51:55;;;;;;;16.25;6.22;;;2.10;99.90;;;;;;5008509;28;20563;-74
2023/02/25 05:54:22;;;;;;;16.65;6.07;;;2.10;99.90;;;;;;5008472;28;20459;-75
2023/02/25 05:56:52;;;;;;;25.05;7.03;;;2.00;99.90;;;;;;4990611;28;20057;-74
2023/02/25 05:59:19;;;;;;;24.45;7.35;;;2.00;99.90;;;;;;4990282;28;20488;-74
2023/02/25 06:01:45;;;;;;;25.45;8.27;;;2.00;99.90;;;;;;5009674;28;20559;-74
2023/02/25 06:04:15;;;;;;;19.02;6.93;;;2.00;99.90;;;;;;4988964;28;20087;-75
2023/02/25 06:06:49;;;;;;;19.25;8.32;;;2.10;99.90;;;;;;4994670;28;20502;-75
2023/02/25 06:09:19;;;;;;;24.48;7.47;;;2.10;99.90;;;;;;4990300;28;20400;-75
2023/02/25 06:11:47;;;;;;;17.38;7.22;;;2.10;99.90;;;;;;4992340;28;20049;-76
2023/02/25 06:14:15;;;;;;;22.05;7.50;;;2.10;99.90;;;;;;5007338;28;20073;-74
2023/02/25 06:16:42;;;;;;;37.45;9.50;;;2.00;99.90;;;;;;4994576;28;20042;-73
2023/02/25 06:19:10;;;;;;;23.20;7.18;;;2.00;99.90;;;;;;4993385;28;20132;-73
2023/02/25 06:21:37;;;;;;;24.67;8.52;;;2.00;99.90;;;;;;4990778;28;20559;-73
2023/02/25 06:24:04;;;;;;;27.00;8.27;;;2.00;99.90;;;;;;4989614;28;20528;-73
2023/02/25 06:26:31;;;;;;;24.35;8.52;;;2.00;99.90;;;;;;4989434;28;20689;-75
2023/02/25 06:28:58;;;;;;;22.67;8.27;;;2.00;99.90;;;;;;5008023;28;20072;-74
2023/02/25 06:31:24;;;;;;;24.50;10.57;;;2.00;99.90;;;;;;5008106;28;20038;-73
2023/02/25 06:33:53;;;;;;;22.98;9.13;;;2.10;99.90;;;;;;5009629;28;20531;-73
2023/02/25 06:36:20;;;;;;;20.90;9.73;;;2.10;99.90;;;;;;4986278;28;20065;-72
2023/02/25 06:38:48;;;;;;;29.35;10.43;;;2.10;99.90;;;;;;5011505;28;20488;-73
2023/02/25 06:41:18;;;;;;;26.73;9.18;;;2.10;99.90;;;;;;5002066;28;20041;-74
2023/02/25 06:43:45;;;;;;;24.02;8.93;;;2.10;99.90;;;;;;4994669;28;20053;-73
2023/02/25 06:46:13;;;;;;;16.90;6.32;;;2.00;99.90;;;;;;5005577;28;20389;-73
2023/02/25 06:48:40;;;;;;;28.85;9.05;;;2.10;99.90;;;;;;4987380;28;20088;-74
2023/02/25 06:51:08;;;;;;;22.73;9.77;;;2.10;99.90;;;;;;5012601;28;21178;-73
2023/02/25 06:53:39;;;;;;;22.50;8.80;;;2.10;99.90;;;;;;4990635;28;20037;-73
2023/02/25 06:56:07;;;;;;;21.45;9.77;;;2.10;99.90;;;;;;4970339;28;20076;-74
2023/02/25 06:58:35;;;;;;;18.42;9.00;;;2.20;99.90;;;;;;4991922;28;20045;-73
2023/02/25 07:01:09;;;;;;;27.05;10.23;;;2.20;99.90;;;;;;5006570;28;20050;-73
2023/02/25 07:03:36;;;;;;;24.75;9.18;;;2.20;99.90;;;;;;5006265;28;20092;-73
2023/02/25 07:06:03;;;;;;;24.42;9.85;;;2.20;99.90;;;;;;5007508;28;20699;-73
2023/02/25 07:08:30;;;;;;;27.02;10.90;;;2.20;99.90;;;;;;5006433;28;20132;-75
2023/02/25 07:11:29;;;;;;;30.38;9.82;;;2.20;99.90;;;;;;4996119;28;20034;-75
2023/02/25 07:13:56;;;;;;;32.47;11.70;;;2.30;99.90;;;;;;4984138;28;20085;-74
2023/02/25 07:16:22;;;;;;;25.80;11.18;;;2.20;99.90;;;;;;4998738;28;20041;-73
2023/02/25 07:18:50;;;;;;;26.73;10.88;;;2.30;99.90;;;;;;5008233;28;20708;-74
2023/02/25 07:21:17;;;;;;;30.10;11.52;;;2.30;99.90;;;;;;4982963;28;20460;-73
2023/02/25 07:23:45;;;;;;;27.48;11.43;;;2.20;99.90;;;;;;5007172;28;20507;-73
2023/02/25 07:26:13;;;;;;;28.13;10.65;;;2.30;99.90;;;;;;5001618;28;20041;-73
2023/02/25 07:28:41;;;;;;;22.65;10.50;;;2.30;99.90;;;;;;4981020;28;20502;-73
2023/02/25 07:31:15;;;;;;;26.00;11.68;;;2.30;99.90;;;;;;4983154;28;20042;-73
2023/02/25 07:33:43;;;;;;;;;;;2.40;99.90;;;;;;5002256;28;20073;-73
2023/02/25 07:36:10;;;;;;;34.33;14.57;;;2.30;99.90;;;;;;5003818;28;20343;-74
2023/02/25 07:38:37;;;;;;;28.02;11.45;;;2.20;99.90;;;;;;5010858;28;20074;-73
2023/02/25 07:41:05;;;;;;;26.40;11.32;;;2.30;99.90;;;;;;5003500;28;20076;-73
2023/02/25 07:43:32;;;;;;;27.58;10.43;;;2.30;99.90;;;;;;4995044;28;20050;-73
2023/02/25 07:45:59;;;;;;;23.80;7.70;;;2.30;99.90;;;;;;5008449;28;20415;-73
2023/02/25 07:48:26;;;;;;;25.60;8.63;;;2.30;99.90;;;;;;4984923;28;20046;-73
2023/02/25 07:50:52;;;;;;;22.98;11.35;;;2.30;99.90;;;;;;4983030;28;20595;-73
2023/02/25 07:53:21;;;;;;;22.80;8.95;;;2.30;99.90;;;;;;4978291;28;20522;-73
2023/02/25 07:55:49;;;;;;;25.10;11.13;;;2.30;99.90;;;;;;4986672;28;20070;-73
2023/02/25 07:58:16;;;;;;;24.98;11.82;;;2.30;99.90;;;;;;4987296;28;20042;-72
2023/02/25 08:00:44;;;;;;;31.70;8.70;;;2.40;99.90;;;;;;4986581;28;20106;-73
2023/02/25 08:03:11;;;;;;;25.30;8.88;;;2.40;99.90;;;;;;4983902;28;20096;-73
2023/02/25 08:05:38;;;;;;;13.45;7.82;;;2.40;99.90;;;;;;4983262;28;20524;-73
2023/02/25 08:08:05;;;;;;;12.75;6.47;;;2.20;99.90;;;;;;5006592;28;20520;-72
2023/02/25 08:10:31;;;;;;;16.80;7.53;;;2.10;99.90;;;;;;4993584;28;20051;-73
2023/02/25 08:12:58;;;;;;;7.38;5.15;;;2.00;99.90;;;;;;4983415;28;20041;-74
2023/02/25 08:15:25;;;;;;;11.00;6.65;;;2.00;99.90;;;;;;4997430;28;20069;-74
2023/02/25 08:17:54;;;;;;;38.83;9.25;;;2.00;99.90;;;;;;5000837;28;20054;-74
2023/02/25 08:20:23;;;;;;;16.67;7.80;;;2.10;99.90;;;;;;4982947;28;20411;-73
2023/02/25 08:22:49;;;;;;;13.48;6.82;;;2.10;99.90;;;;;;4990452;28;20136;-74
2023/02/25 08:25:16;;;;;;;14.48;6.85;;;2.10;99.90;;;;;;4984761;28;20056;-73
2023/02/25 08:27:43;;;;;;;16.25;7.13;;;2.20;99.90;;;;;;4980486;28;20038;-73
2023/02/25 08:30:10;;;;;;;12.32;6.47;;;2.20;99.90;;;;;;4999725;28;20053;-73
2023/02/25 08:32:37;;;;;;;13.57;6.93;;;2.30;99.90;;;;;;5002967;28;20120;-73
2023/02/25 08:35:04;;;;;;;21.73;5.85;;;2.40;99.90;;;;;;4988327;28;20963;-73
2023/02/25 08:37:32;;;;;;;14.95;6.63;;;2.50;99.90;;;;;;4989442;28;20049;-74
2023/02/25 08:39:59;;;;;;;12.27;5.68;;;2.60;99.90;;;;;;4990744;28;20651;-74
2023/02/25 08:42:26;;;;;;;13.90;6.38;;;2.60;99.90;;;;;;5006271;28;20124;-74
2023/02/25 08:44:52;;;;;;;16.10;8.00;;;2.60;99.90;;;;;;5008881;28;20459;-73
2023/02/25 08:47:19;;;;;;;9.98;6.80;;;2.60;99.90;;;;;;4990444;28;20046;-72
2023/02/25 08:49:46;;;;;;;11.73;7.07;;;2.70;99.90;;;;;;5009422;28;20045;-75
2023/02/25 08:52:13;;;;;;;15.00;7.85;;;2.80;99.90;;;;;;4987933;28;20427;-74
2023/02/25 08:54:40;;;;;;;15.68;5.75;;;2.80;99.90;;;;;;4992966;28;20037;-72
2023/02/25 08:57:07;;;;;;;13.25;7.20;;;2.90;99.90;;;;;;5007598;28;20546;-72
2023/02/25 08:59:34;;;;;;;7.72;5.53;;;3.00;99.90;;;;;;4975906;28;20550;-74
2023/02/25 09:02:04;;;;;;;10.95;7.38;;;3.10;99.90;;;;;;5005438;28;20057;-72
2023/02/25 09:04:32;;;;;;;8.00;6.70;;;2.90;99.90;;;;;;4992193;28;20037;-72
2023/02/25 09:07:00;;;;;;;9.90;6.38;;;3.00;99.90;;;;;;4988776;28;20313;-75
2023/02/25 09:09:27;;;;;;;10.55;8.73;;;3.00;99.90;;;;;;5006634;28;20048;-74
2023/02/25 09:11:54;;;;;;;10.38;9.48;;;2.90;99.90;;;;;;4993452;28;20228;-74
2023/02/25 09:14:21;;;;;;;11.60;10.55;;;2.80;99.90;;;;;;4990400;28;20049;-74
2023/02/25 09:16:48;;;;;;;16.33;12.18;;;2.90;99.90;;;;;;4994781;28;20152;-73
2023/02/25 09:19:17;;;;;;;19.77;13.82;;;2.80;99.90;;;;;;4981637;28;20519;-74
2023/02/25 09:21:46;;;;;;;15.18;14.20;;;2.80;99.90;;;;;;4974235;28;20144;-73
2023/02/25 09:24:14;;;;;;;16.95;15.68;;;2.80;99.90;;;;;;4987852;28;20068;-71
2023/02/25 09:26:41;;;;;;;15.25;14.18;;;2.90;99.90;;;;;;4992210;28;20400;-72
2023/02/25 09:29:08;;;;;;;12.88;11.88;;;2.90;99.90;;;;;;4989007;28;20462;-73
2023/02/25 09:31:36;;;;;;;15.68;14.45;;;3.10;99.90;;;;;;4990668;28;20527;-71
2023/02/25 09:34:06;;;;;;;16.83;15.70;;;3.10;99.90;;;;;;5005942;28;20045;-72
2023/02/25 09:36:33;;;;;;;20.55;18.75;;;3.10;99.90;;;;;;5008963;28;20046;-71
2023/02/25 09:38:59;;;;;;;20.30;18.38;;;3.00;99.90;;;;;;5003955;28;20463;-72
2023/02/25 09:41:34;;;;;;;18.10;16.58;;;2.90;99.90;;;;;;4986481;28;20305;-71
2023/02/25 09:44:04;;;;;;;;;;;2.90;99.90;;;;;;4991419;28;20129;-73
2023/02/25 09:46:33;;;;;;;18.30;16.55;;;3.00;99.90;;;;;;5002393;28;20271;-73
2023/02/25 09:49:27;;;;;;;18.48;17.05;;;2.90;99.90;;;;;;4983967;28;20045;-72
2023/02/25 09:52:21;;;;;;;14.20;12.63;;;2.90;99.90;;;;;;4992682;28;20346;-74
2023/02/25 09:54:54;;;;;;;8.75;7.97;;;2.90;99.90;;;;;;4987021;28;20050;-73
2023/02/25 09:57:22;;;;;;;3.78;3.42;;;1.90;99.90;;;;;;5002338;28;20041;-74
2023/02/25 09:59:52;;;;;;;6.25;2.20;;;1.10;99.90;;;;;;5008398;28;20049;-70
2023/02/25 10:02:39;;;;;;;6.65;2.10;;;0.70;99.90;;;;;;4985712;28;20049;-70
2023/02/25 10:05:16;;;;;;;4.40;1.88;;;0.70;99.90;;;;;;5010403;28;20037;-70
2023/02/25 10:08:38;;;;;;;8.13;2.63;;;0.80;99.90;;;;;;4987646;28;20139;-75
2023/02/25 10:11:09;;;;;;;7.93;3.90;;;1.10;99.90;;;;;;4965892;28;20030;-73
2023/02/25 10:14:01;;;;;;;11.13;4.80;;;1.30;99.90;;;;;;4984307;28;20065;-73
2023/02/25 10:16:51;;;;;;;8.70;7.07;;;1.50;99.90;;;;;;5005268;28;20125;-74
2023/02/25 10:19:36;;;;;;;15.85;10.07;;;1.80;99.90;;;;;;4985536;28;20041;-74
2023/02/25 10:22:21;;;;;;;15.02;13.57;;;2.10;99.90;;;;;;5008858;28;20132;-74
2023/02/25 10:24:52;;;;;;;17.63;16.52;;;2.40;99.90;;;;;;5005921;28;20041;-74
2023/02/25 10:27:23;;;;;;;21.65;20.17;;;2.70;99.90;;;;;;4989480;28;20526;-72
2023/02/25 10:29:58;;;;;;;22.02;20.10;;;3.10;99.90;;;;;;5009352;28;20522;-73
2023/02/25 10:32:30;;;;;;;19.15;17.83;;;3.20;99.90;;;;;;4977378;28;20037;-72
2023/02/25 10:34:59;;;;;;;21.00;19.02;;;3.00;99.90;;;;;;5005201;28;20049;-73
2023/02/25 10:37:34;;;;;;;14.85;13.80;;;2.30;99.90;;;;;;5005311;28;20489;-73
2023/02/25 10:40:03;;;;;;;;;;;1.40;99.90;;;;;;5022341;23;20377;-73
2023/02/25 10:42:30;;;;;;;13.30;12.27;;;1.00;99.90;;;;;;4994212;28;20276;-75
2023/02/25 10:45:07;;;;;;;15.63;14.52;;;0.90;99.90;;;;;;5013296;28;20527;-75
2023/02/25 10:47:36;;;;;;;17.98;17.13;;;1.00;99.90;;;;;;5013579;28;20939;-74
2023/02/25 10:50:17;;;;;;;23.48;22.27;;;1.00;99.90;;;;;;5030271;28;20316;-75
2023/02/25 10:52:56;;;;;;;19.85;18.80;;;1.20;99.90;;;;;;5018063;28;20056;-73
2023/02/25 10:55:51;;;;;;;23.95;22.20;;;1.40;99.90;;;;;;5025393;28;20106;-73
2023/02/25 10:58:45;;;;;;;23.80;22.02;;;1.70;99.90;;;;;;5009331;28;20552;-71
2023/02/25 11:01:19;;;;;;;20.17;19.08;;;1.80;99.90;;;;;;5007200;28;20511;-74
2023/02/25 11:03:59;;;;;;;22.75;21.73;;;1.80;99.90;;;;;;5007399;28;20417;-74
2023/02/25 11:06:34;;;;;;;24.25;23.13;;;1.90;99.90;;;;;;5027924;28;20103;-73
2023/02/25 11:09:03;;;;;;;24.88;23.27;;;1.90;99.90;;;;;;5013068;28;20077;-72
2023/02/25 11:11:36;;;;;;;22.58;21.40;;;2.00;99.90;;;;;;5027555;28;20128;-73
2023/02/25 11:14:14;;;;;;;21.02;19.77;;;2.00;99.90;;;;;;5012073;28;20126;-73
2023/02/25 11:16:43;;;;;;;18.45;17.52;;;1.90;99.90;;;;;;5006910;28;20429;-73
2023/02/25 11:19:21;;;;;;;21.48;20.02;;;2.10;99.90;;;;;;5012201;28;20033;-72
2023/02/25 11:21:48;;;;;;;21.60;20.10;;;2.30;99.90;;;;;;5027920;28;20045;-72
2023/02/25 11:24:21;;;;;;;18.88;17.77;;;2.40;99.90;;;;;;5008972;28;20395;-71
2023/02/25 11:26:50;;;;;;;19.08;17.40;;;2.40;99.90;;;;;;5025856;28;20507;-71
2023/02/25 11:29:22;;;;;;;18.95;17.88;;;2.20;99.90;;;;;;5010714;28;20041;-71
2023/02/25 11:31:57;;;;;;;19.88;18.35;;;2.20;99.90;;;;;;5007561;28;20445;-71
2023/02/25 11:34:29;;;;;;;19.63;18.63;;;2.20;99.90;;;;;;5006586;28;20114;-71
2023/02/25 11:37:17;;;;;;;18.55;17.55;;;2.20;99.90;;;;;;5028953;28;20239;-70
2023/02/25 11:39:53;;;;;;;20.88;19.30;;;2.30;99.90;;;;;;5008797;28;20479;-71
2023/02/25 11:42:26;;;;;;;26.15;24.50;;;2.40;99.90;;;;;;5010179;28;20442;-73
2023/02/25 11:45:03;;;;;;;20.42;19.02;;;2.80;99.90;;;;;;5012189;28;20057;-73
2023/02/25 11:47:32;;;;;;;27.67;26.27;;;3.20;99.90;;;;;;5009612;28;20053;-74
2023/02/25 11:50:14;;;;;;;27.63;26.23;;;3.30;99.90;;;;;;5009979;28;20045;-73
2023/02/25 11:53:00;;;;;;;28.00;26.58;;;3.30;99.90;;;;;;5009870;28;20108;-73
2023/02/25 11:56:04;;;;;;;28.40;26.60;;;3.30;99.90;;;;;;5025284;28;20041;-73
2023/02/25 11:58:56;;;;;;;25.35;23.83;;;3.00;99.90;;;;;;5025033;28;20044;-72
2023/02/25 12:01:46;;;;;;;26.77;25.17;;;2.70;99.90;;;;;;5025390;28;20072;-73
2023/02/25 12:04:52;;;;;;;26.90;25.38;;;2.40;99.90;;;;;;5009303;28;20037;-71
2023/02/25 12:07:47;;;;;;;26.13;24.30;;;2.40;99.90;;;;;;5022640;28;20075;-72
2023/02/25 12:11:01;;;;;;;26.02;24.52;;;2.30;99.90;;;;;;5008750;28;20037;-71
2023/02/25 12:13:50;;;;;;;25.55;24.02;;;2.30;99.90;;;;;;5006764;28;20079;-71
2023/02/25 12:16:42;;;;;;;31.90;29.60;;;2.40;99.90;;;;;;5020755;28;20511;-73
2023/02/25 12:19:22;;;;;;;26.48;25.20;;;2.60;99.90;;;;;;5023461;28;20055;-73
2023/02/25 12:22:25;;;;;;;34.88;32.40;;;3.00;99.90;;;;;;5014194;28;20065;-73
2023/02/25 12:24:52;;;;;;;26.73;25.10;;;3.00;99.90;;;;;;5025271;28;20052;-72
2023/02/25 12:27:32;;;;;;;31.25;29.20;;;2.80;99.90;;;;;;5025593;28;20036;-72
2023/02/25 12:30:32;;;;;;;29.40;27.88;;;2.60;99.90;;;;;;5012114;28;20140;-72
2023/02/25 12:33:11;;;;;;;29.63;28.13;;;2.50;99.90;;;;;;4989874;28;20063;-72
2023/02/25 12:36:02;;;;;;;28.23;26.38;;;2.30;99.90;;;;;;5024777;28;20037;-72
2023/02/25 12:39:01;;;;;;;28.75;26.88;;;2.30;99.90;;;;;;5008958;28;20107;-71
2023/02/25 12:41:46;;;;;;;29.10;27.10;;;2.20;99.90;;;;;;5022822;28;20472;-71
2023/02/25 12:44:38;;;;;;;26.50;24.92;;;2.20;99.90;;;;;;5027109;28;20470;-71
2023/02/25 12:47:43;;;;;;;25.83;24.42;;;2.10;99.90;;;;;;5010175;28;20049;-70
2023/02/25 12:50:22;;;;;;;26.92;25.52;;;2.20;99.90;;;;;;5025445;28;20684;-72
2023/02/25 12:53:01;;;;;;;26.08;24.67;;;2.30;99.90;;;;;;5025056;28;20059;-72
2023/02/25 12:55:39;;;;;;;29.23;27.63;;;2.40;99.90;;;;;;5026354;28;20052;-72
2023/02/25 12:58:32;;;;;;;35.63;33.67;;;2.70;99.90;;;;;;5027681;28;20065;-73
2023/02/25 13:01:12;;;;;;;41.55;39.45;;;2.80;99.90;;;;;;5030217;28;20167;-72
2023/02/25 13:03:56;;;;;;;43.00;40.78;;;2.80;99.90;;;;;;5026617;28;20354;-72
2023/02/25 13:06:44;;;;;;;43.85;41.65;;;2.40;99.90;;;;;;5024819;28;20541;-73
2023/02/25 13:09:45;;;;;;;36.85;35.03;;;2.40;99.90;;;;;;5008013;28;20041;-73
2023/02/25 13:12:27;;;;;;;27.75;26.15;;;2.30;99.90;;;;;;5027284;28;20405;-73
2023/02/25 13:15:19;;;;;;;27.23;25.73;;;2.20;99.90;;;;;;5026378;28;20785;-72